Terminal Aerodrome Forecast
Issued by NWS

Home | Current Version | Previous Version | Text Only | Print | Product List | Glossary On
Versions: 1 2 3 4 5 6 7 8 9 10 11 12 13 14
000
FTUS41 KPHI 011735
TAFMIV
TAF
KMIV 011735Z 0118/0218 15005KT P6SM FEW250
     FM020500 VRB02KT 3SM BR SCT250
      TEMPO 0210/0212 1SM BR
     FM021400 VRB04KT 6SM BR SCT050=

USA.gov is the U.S. government's official web portal to all federal, state and local government web resources and services.